createdAt,value
2019-03-20T00:00:37.599Z,16.60
2019-03-20T00:03:06.245Z,20.20
2019-03-20T00:05:34.819Z,20.03
2019-03-20T00:08:03.490Z,24.10
2019-03-20T00:10:32.509Z,19.57
2019-03-20T00:13:01.272Z,17.07
2019-03-20T00:15:29.850Z,19.73
2019-03-20T00:17:58.434Z,17.87
2019-03-20T00:20:27.072Z,23.37
2019-03-20T00:22:55.654Z,18.13
2019-03-20T00:25:24.222Z,20.33
2019-03-20T00:27:52.815Z,23.07
2019-03-20T00:30:21.531Z,21.10
2019-03-20T00:32:50.186Z,15.83
2019-03-20T00:35:18.831Z,21.10
2019-03-20T00:37:47.422Z,16.87
2019-03-20T00:40:18.105Z,17.03
2019-03-20T00:42:46.761Z,18.13
2019-03-20T00:45:20.050Z,20.10
2019-03-20T00:47:48.710Z,17.60
2019-03-20T00:50:18.418Z,16.50
2019-03-20T00:52:47.252Z,20.20
2019-03-20T00:55:20.481Z,20.67
2019-03-20T00:57:49.515Z,16.87
2019-03-20T01:00:22.091Z,21.30
2019-03-20T01:02:50.800Z,21.77
2019-03-20T01:05:20.254Z,26.63
2019-03-20T01:07:48.914Z,16.87
2019-03-20T01:10:19.134Z,16.73
2019-03-20T01:12:47.797Z,20.03
2019-03-20T01:15:16.614Z,20.87
2019-03-20T01:17:45.635Z,17.43
2019-03-20T01:20:19.268Z,25.73
2019-03-20T01:22:47.959Z,20.13
2019-03-20T01:25:17.258Z,23.30
2019-03-20T01:27:45.843Z,19.67
2019-03-20T01:30:33.785Z,21.90
2019-03-20T01:33:12.189Z,25.73
2019-03-20T01:35:41.108Z,22.63
2019-03-20T01:38:10.432Z,26.07
2019-03-20T01:40:40.560Z,23.27
2019-03-20T01:43:09.588Z,22.60
2019-03-20T01:45:38.290Z,22.23
2019-03-20T01:48:06.961Z,25.87
2019-03-20T01:50:35.527Z,21.47
2019-03-20T01:53:05.052Z,32.13
2019-03-20T01:55:33.627Z,18.13
2019-03-20T01:58:02.217Z,19.13
2019-03-20T02:00:30.922Z,21.63
2019-03-20T02:02:59.488Z,21.53
2019-03-20T02:05:35.967Z,25.43
2019-03-20T02:07:58.289Z,29.23
2019-03-20T02:10:26.958Z,24.90
2019-03-20T02:12:55.526Z,23.00
2019-03-20T02:15:24.190Z,26.03
2019-03-20T02:17:52.766Z,24.67
2019-03-20T02:20:21.817Z,24.67
2019-03-20T02:22:50.381Z,22.80
2019-03-20T02:25:18.970Z,23.60
2019-03-20T02:27:47.549Z,25.40
2019-03-20T02:30:18.071Z,24.03
2019-03-20T02:32:46.684Z,23.23
2019-03-20T02:35:15.540Z,24.63
2019-03-20T02:37:44.178Z,22.53
2019-03-20T02:40:13.939Z,25.33
2019-03-20T02:42:42.547Z,29.97
2019-03-20T02:45:13.444Z,26.13
2019-03-20T02:47:42.010Z,27.10
2019-03-20T02:50:11.749Z,26.13
2019-03-20T02:52:40.316Z,22.00
2019-03-20T02:55:09.933Z,23.90
2019-03-20T02:57:38.502Z,24.87
2019-03-20T03:00:10.231Z,24.07
2019-03-20T03:02:38.866Z,21.67
2019-03-20T03:05:08.391Z,24.17
2019-03-20T03:07:36.958Z,20.80
2019-03-20T03:10:10.761Z,27.63
2019-03-20T03:12:39.326Z,24.60
2019-03-20T03:15:09.853Z,28.47
2019-03-20T03:17:38.422Z,26.47
2019-03-20T03:20:09.271Z,22.97
2019-03-20T03:22:37.900Z,32.50
2019-03-20T03:25:08.318Z,26.80
2019-03-20T03:27:36.896Z,27.03
2019-03-20T03:30:18.111Z,28.23
2019-03-20T03:32:46.848Z,23.73
2019-03-20T03:35:18.495Z,35.87
2019-03-20T03:37:45.850Z,29.00
2019-03-20T03:40:20.482Z,28.30
2019-03-20T03:42:49.077Z,30.73
2019-03-20T03:45:17.882Z,29.67
2019-03-20T03:47:46.692Z,25.20
2019-03-20T03:50:15.502Z,23.30
2019-03-20T03:52:44.080Z,26.57
2019-03-20T03:55:13.710Z,23.03
2019-03-20T03:57:42.706Z,27.13
2019-03-20T04:00:16.343Z,35.57
2019-03-20T04:02:44.980Z,26.93
2019-03-20T04:05:14.025Z,23.10
2019-03-20T04:07:42.645Z,27.47
2019-03-20T04:10:12.887Z,33.13
2019-03-20T04:12:41.525Z,28.00
2019-03-20T04:15:12.330Z,25.90
2019-03-20T04:17:40.831Z,33.73
2019-03-20T04:20:11.944Z,29.40
2019-03-20T04:22:40.518Z,25.27
2019-03-20T04:25:10.251Z,23.37
2019-03-20T04:27:38.945Z,25.20
2019-03-20T04:30:12.541Z,29.63
2019-03-20T04:32:41.186Z,25.67
2019-03-20T04:35:10.119Z,21.50
2019-03-20T04:37:38.690Z,25.63
2019-03-20T04:40:15.257Z,25.30
2019-03-20T04:42:43.836Z,21.63
2019-03-20T04:45:13.455Z,22.53
2019-03-20T04:47:42.097Z,25.73
2019-03-20T04:50:12.018Z,20.73
2019-03-20T04:52:40.506Z,24.47
2019-03-20T04:55:09.450Z,28.13
2019-03-20T04:57:38.030Z,23.90
2019-03-20T05:00:15.309Z,26.70
2019-03-20T05:02:43.878Z,22.83
2019-03-20T05:05:12.615Z,32.60
2019-03-20T05:07:41.183Z,20.07
2019-03-20T05:10:12.100Z,29.43
2019-03-20T05:12:40.746Z,26.07
2019-03-20T05:15:11.371Z,23.83
2019-03-20T05:17:40.500Z,25.00
2019-03-20T05:20:13.790Z,22.20
2019-03-20T05:22:42.430Z,22.07
2019-03-20T05:25:11.087Z,22.53
2019-03-20T05:27:39.732Z,24.77
2019-03-20T05:30:13.418Z,24.60
2019-03-20T05:32:41.988Z,22.70
2019-03-20T05:35:10.716Z,22.73
2019-03-20T05:37:39.291Z,23.50
2019-03-20T05:40:11.072Z,27.13
2019-03-20T05:42:39.637Z,26.13
2019-03-20T05:45:16.320Z,22.10
2019-03-20T05:47:44.887Z,24.37
2019-03-20T05:50:14.309Z,26.50
2019-03-20T05:52:42.876Z,23.47
2019-03-20T05:55:11.619Z,20.23
2019-03-20T05:57:40.324Z,25.33
2019-03-20T06:00:18.353Z,23.93
2019-03-20T06:02:47.053Z,24.17
2019-03-20T06:05:15.643Z,25.50
2019-03-20T06:07:44.219Z,18.57
2019-03-20T06:10:14.327Z,20.13
2019-03-20T06:12:43.253Z,20.63
2019-03-20T06:15:12.052Z,22.20
2019-03-20T06:17:40.643Z,21.17
2019-03-20T06:20:13.678Z,26.97
2019-03-20T06:22:42.263Z,23.93
2019-03-20T06:25:14.862Z,19.13
2019-03-20T06:27:43.633Z,25.07
2019-03-20T06:30:17.191Z,19.50
2019-03-20T06:32:45.773Z,19.27
2019-03-20T06:35:14.488Z,22.47
2019-03-20T06:37:43.075Z,18.83
2019-03-20T06:40:15.985Z,18.87
2019-03-20T06:42:44.810Z,22.30
2019-03-20T06:45:20.498Z,22.83
2019-03-20T06:47:49.086Z,20.17
2019-03-20T06:50:18.807Z,18.77
2019-03-20T06:52:47.387Z,23.33
2019-03-20T06:55:15.953Z,19.87
2019-03-20T06:57:44.542Z,19.80
2019-03-20T07:00:38.621Z,16.60
2019-03-20T07:03:24.997Z,14.97
2019-03-20T07:06:15.795Z,19.00
2019-03-20T07:09:09.771Z,16.07
2019-03-20T07:11:41.378Z,18.70
2019-03-20T07:14:09.945Z,17.93
2019-03-20T07:16:38.526Z,15.33
2019-03-20T07:19:07.098Z,18.30
2019-03-20T07:21:35.691Z,24.70
2019-03-20T07:24:04.257Z,17.50
2019-03-20T07:26:32.845Z,19.53
2019-03-20T07:29:01.418Z,18.60
2019-03-20T07:31:30.018Z,19.53
2019-03-20T07:33:58.579Z,20.97
2019-03-20T07:36:27.178Z,21.97
2019-03-20T07:38:55.738Z,19.60
2019-03-20T07:41:24.257Z,18.87
2019-03-20T07:43:52.826Z,26.83
2019-03-20T07:46:21.419Z,20.63
2019-03-20T07:48:49.990Z,17.33
2019-03-20T07:51:18.588Z,17.27
2019-03-20T07:53:47.158Z,18.93
2019-03-20T07:56:15.666Z,16.17
2019-03-20T07:58:44.237Z,18.03
2019-03-20T08:01:12.749Z,16.17
2019-03-20T08:03:41.325Z,17.53
2019-03-20T08:06:09.889Z,15.87
2019-03-20T08:08:38.395Z,16.57
2019-03-20T08:11:06.954Z,16.97
2019-03-20T08:13:35.546Z,16.03
2019-03-20T08:16:04.285Z,14.10
2019-03-20T08:18:32.846Z,16.80
2019-03-20T08:21:01.411Z,13.47
2019-03-20T08:23:29.994Z,13.20
2019-03-20T08:25:58.562Z,16.27
2019-03-20T08:28:27.146Z,13.33
2019-03-20T08:30:55.724Z,14.73
2019-03-20T08:33:24.377Z,16.70
2019-03-20T08:35:52.932Z,17.43
2019-03-20T08:38:21.527Z,21.13
2019-03-20T08:40:50.089Z,13.50
2019-03-20T08:43:18.603Z,15.07
2019-03-20T08:45:47.210Z,16.57
2019-03-20T08:48:15.919Z,16.67
2019-03-20T08:50:44.488Z,12.13
2019-03-20T08:53:13.078Z,18.63
2019-03-20T08:55:41.710Z,14.97
2019-03-20T08:58:10.430Z,15.87
2019-03-20T09:00:39.063Z,16.77
2019-03-20T09:03:07.653Z,15.13
2019-03-20T09:05:36.214Z,16.67
2019-03-20T09:08:04.739Z,17.97
2019-03-20T09:10:33.313Z,19.43
2019-03-20T09:13:02.007Z,18.87
2019-03-20T09:15:30.574Z,14.40
2019-03-20T09:17:59.090Z,16.07
2019-03-20T09:20:27.674Z,22.03
2019-03-20T09:22:56.287Z,16.20
2019-03-20T09:25:26.427Z,12.73
2019-03-20T09:27:55.277Z,17.90
2019-03-20T09:30:24.744Z,16.90
2019-03-20T09:32:53.488Z,15.23
2019-03-20T09:35:22.131Z,17.67
2019-03-20T09:40:28.947Z,15.13
2019-03-20T09:42:58.715Z,19.30
2019-03-20T09:45:27.262Z,13.60
2019-03-20T09:47:55.857Z,17.03
2019-03-20T09:50:26.433Z,17.43
2019-03-20T09:52:55.111Z,16.57
2019-03-20T09:55:23.675Z,21.80
2019-03-20T09:57:52.275Z,20.53
2019-03-20T10:00:27.462Z,21.33
2019-03-20T10:02:57.146Z,19.47
2019-03-20T10:05:25.729Z,21.27
2019-03-20T10:07:54.317Z,19.50
2019-03-20T10:10:30.175Z,25.33
2019-03-20T10:12:59.052Z,18.90
2019-03-20T10:15:31.494Z,18.17
2019-03-20T10:18:01.244Z,20.97
2019-03-20T10:20:29.814Z,19.77
2019-03-20T10:22:58.413Z,20.87
2019-03-20T10:25:27.055Z,21.87
2019-03-20T10:27:55.657Z,19.87
2019-03-20T10:30:28.995Z,20.90
2019-03-20T10:32:57.584Z,21.97
2019-03-20T10:35:26.239Z,23.97
2019-03-20T10:37:54.821Z,19.53
2019-03-20T10:40:25.415Z,19.50
2019-03-20T10:42:54.150Z,20.97
2019-03-20T10:45:22.850Z,16.90
2019-03-20T10:47:53.304Z,20.27
2019-03-20T10:50:22.801Z,19.37
2019-03-20T10:52:51.511Z,16.90
2019-03-20T10:55:21.642Z,16.13
2019-03-20T10:57:50.581Z,27.93
2019-03-20T11:00:23.949Z,16.83
2019-03-20T11:02:52.594Z,19.13
2019-03-20T11:05:21.524Z,14.93
2019-03-20T11:07:50.330Z,13.67
2019-03-20T11:10:28.386Z,10.77
2019-03-20T11:12:57.163Z,10.23
2019-03-20T11:15:26.401Z,12.13
2019-03-20T11:17:56.424Z,11.07
2019-03-20T11:20:25.527Z,11.37
2019-03-20T11:22:54.198Z,14.07
2019-03-20T11:25:26.566Z,10.53
2019-03-20T11:27:55.127Z,7.70
2019-03-20T11:30:31.235Z,8.63
2019-03-20T11:32:59.873Z,8.87
2019-03-20T11:35:28.384Z,12.60
2019-03-20T11:37:57.032Z,10.73
2019-03-20T11:40:33.959Z,11.13
2019-03-20T11:43:02.532Z,8.90
2019-03-20T11:45:32.385Z,5.80
2019-03-20T11:48:00.949Z,9.70
2019-03-20T11:50:37.202Z,8.17
2019-03-20T11:53:07.004Z,7.77
2019-03-20T11:55:35.965Z,8.20
2019-03-20T11:58:05.578Z,7.43
2019-03-20T12:00:34.306Z,11.03
2019-03-20T12:03:03.020Z,7.40
2019-03-20T12:05:31.619Z,8.20
2019-03-20T12:08:00.178Z,7.97
2019-03-20T12:10:29.909Z,6.87
2019-03-20T12:12:58.401Z,6.80
2019-03-20T12:15:27.180Z,6.03
2019-03-20T12:17:55.813Z,8.87
2019-03-20T12:20:25.043Z,9.90
2019-03-20T12:22:53.749Z,7.90
2019-03-20T12:25:33.035Z,8.23
2019-03-20T12:28:01.743Z,9.17
2019-03-20T12:30:37.253Z,8.80
2019-03-20T12:33:06.355Z,7.27
2019-03-20T12:35:40.442Z,9.83
2019-03-20T12:38:14.984Z,8.63
2019-03-20T12:40:39.327Z,10.17
2019-03-20T12:43:07.965Z,7.17
2019-03-20T12:45:38.358Z,8.13
2019-03-20T12:48:08.016Z,9.50
2019-03-20T12:50:36.725Z,6.50
2019-03-20T12:53:06.927Z,8.80
2019-03-20T12:55:35.512Z,5.87
2019-03-20T12:58:04.215Z,8.00
2019-03-20T13:00:32.863Z,7.63
2019-03-20T13:03:01.494Z,12.97
2019-03-20T13:05:30.086Z,10.17
2019-03-20T13:08:05.501Z,6.90
2019-03-20T13:10:29.071Z,7.50
2019-03-20T13:12:57.706Z,6.97
2019-03-20T13:15:27.233Z,7.83
2019-03-20T13:17:56.757Z,6.47
2019-03-20T13:20:25.506Z,5.97
2019-03-20T13:23:02.353Z,6.27
2019-03-20T13:25:31.011Z,7.77
2019-03-20T13:27:59.574Z,8.60
2019-03-20T13:30:40.399Z,6.43
2019-03-20T13:33:08.964Z,7.97
2019-03-20T13:35:37.617Z,6.50
2019-03-20T13:38:06.188Z,6.93
2019-03-20T13:40:34.772Z,9.00
2019-03-20T13:43:03.408Z,5.77
2019-03-20T13:45:32.069Z,10.17
2019-03-20T13:48:00.640Z,6.87
2019-03-20T13:50:29.230Z,7.20
2019-03-20T13:52:57.806Z,11.60
2019-03-20T13:55:26.407Z,7.60
2019-03-20T13:57:55.038Z,8.80
2019-03-20T14:00:27.239Z,5.53
2019-03-20T14:02:55.865Z,9.63
2019-03-20T14:05:24.517Z,7.30
2019-03-20T14:07:53.014Z,7.73
2019-03-20T14:10:26.753Z,6.43
2019-03-20T14:12:55.251Z,6.20
2019-03-20T14:15:23.906Z,6.10
2019-03-20T14:17:52.537Z,7.77
2019-03-20T14:20:23.635Z,7.23
2019-03-20T14:22:52.271Z,8.93
2019-03-20T14:25:21.197Z,5.87
2019-03-20T14:27:50.294Z,8.00
2019-03-20T14:30:23.942Z,7.87
2019-03-20T14:32:52.497Z,5.83
2019-03-20T14:35:21.082Z,6.77
2019-03-20T14:37:49.782Z,7.40
2019-03-20T14:40:35.362Z,8.03
2019-03-20T14:42:59.852Z,7.70
2019-03-20T14:45:28.431Z,10.33
2019-03-20T14:47:57.992Z,8.13
2019-03-20T14:50:27.515Z,7.97
2019-03-20T14:52:56.086Z,10.40
2019-03-20T14:55:24.805Z,9.73
2019-03-20T14:57:53.343Z,10.23
2019-03-20T15:00:24.453Z,8.73
2019-03-20T15:02:53.386Z,9.73
2019-03-20T15:05:22.498Z,8.07
2019-03-20T15:07:51.154Z,10.10
2019-03-20T15:10:25.610Z,9.50
2019-03-20T15:12:54.615Z,10.70
2019-03-20T15:15:48.290Z,12.43
2019-03-20T15:18:16.787Z,12.13
2019-03-20T15:20:45.298Z,11.67
2019-03-20T15:23:13.870Z,10.57
2019-03-20T15:25:44.178Z,8.13
2019-03-20T15:28:12.740Z,12.27
2019-03-20T15:30:41.323Z,8.37
2019-03-20T15:33:09.886Z,8.80
2019-03-20T15:35:38.411Z,13.13
2019-03-20T15:38:06.969Z,10.80
2019-03-20T15:40:35.490Z,21.57
2019-03-20T15:43:04.202Z,27.43
2019-03-20T15:45:32.795Z,11.10
2019-03-20T15:48:01.365Z,22.70
2019-03-20T15:50:29.935Z,13.87
2019-03-20T15:52:58.599Z,8.70
2019-03-20T15:55:29.778Z,10.03
2019-03-20T15:57:58.432Z,9.50
2019-03-20T16:00:27.333Z,6.97
2019-03-20T16:03:04.758Z,10.17
2019-03-20T16:05:33.334Z,12.00
2019-03-20T16:08:01.999Z,10.03
2019-03-20T16:10:30.714Z,10.03
2019-03-20T16:12:59.298Z,8.43
2019-03-20T16:15:27.947Z,8.83
2019-03-20T16:17:56.536Z,11.43
2019-03-20T16:20:25.175Z,7.37
2019-03-20T16:22:53.823Z,9.40
2019-03-20T16:25:24.299Z,9.43
2019-03-20T16:27:52.908Z,9.53
2019-03-20T16:30:29.393Z,8.23
2019-03-20T16:32:59.010Z,8.70
2019-03-20T16:35:27.574Z,9.63
2019-03-20T16:37:56.236Z,10.97
2019-03-20T16:40:26.444Z,9.90
2019-03-20T16:42:55.098Z,11.63
2019-03-20T16:45:26.657Z,8.23
2019-03-20T16:47:55.308Z,8.73
2019-03-20T16:50:23.974Z,13.67
2019-03-20T16:52:52.535Z,10.87
2019-03-20T16:55:21.098Z,10.43
2019-03-20T16:57:50.124Z,10.93
2019-03-20T17:00:33.999Z,11.77
2019-03-20T17:03:04.850Z,11.70
2019-03-20T17:05:33.343Z,14.10
2019-03-20T17:08:02.008Z,12.93
2019-03-20T17:10:41.422Z,13.47
2019-03-20T17:13:11.150Z,11.37
2019-03-20T17:15:41.983Z,13.50
2019-03-20T17:18:10.709Z,11.80
2019-03-20T17:20:39.209Z,13.00
2019-03-20T17:23:08.146Z,9.17
2019-03-20T17:25:36.842Z,10.60
2019-03-20T17:28:06.367Z,12.50
2019-03-20T17:30:41.587Z,12.80
2019-03-20T17:33:10.170Z,19.17
2019-03-20T17:35:38.661Z,13.47
2019-03-20T17:38:07.182Z,14.83
2019-03-20T17:40:35.777Z,14.00
2019-03-20T17:43:04.911Z,11.60
2019-03-20T17:45:33.718Z,14.27
2019-03-20T17:48:02.327Z,11.67
2019-03-20T17:50:31.920Z,13.30
2019-03-20T17:53:00.583Z,11.30
2019-03-20T17:55:29.396Z,12.93
2019-03-20T17:57:57.991Z,15.27
2019-03-20T18:00:40.925Z,14.93
2019-03-20T18:03:09.663Z,13.73
2019-03-20T18:05:38.475Z,15.80
2019-03-20T18:08:07.809Z,14.57
2019-03-20T18:10:36.465Z,15.50
2019-03-20T18:13:06.391Z,14.83
2019-03-20T18:15:35.399Z,15.93
2019-03-20T18:18:04.855Z,17.07
2019-03-20T18:20:33.427Z,16.23
2019-03-20T18:23:02.101Z,16.53
2019-03-20T18:25:30.660Z,14.40
2019-03-20T18:27:59.390Z,16.43
2019-03-20T18:30:32.505Z,13.23
2019-03-20T18:33:01.097Z,18.30
2019-03-20T18:35:29.674Z,18.07
2019-03-20T18:37:58.192Z,19.40
2019-03-20T18:40:27.830Z,16.70
2019-03-20T18:42:56.419Z,19.37
2019-03-20T18:45:26.040Z,19.03
2019-03-20T18:47:54.773Z,20.97
2019-03-20T18:50:24.371Z,23.93
2019-03-20T18:52:53.022Z,21.23
2019-03-20T18:55:21.730Z,21.33
2019-03-20T18:57:50.388Z,19.70
2019-03-20T19:00:29.233Z,22.53
2019-03-20T19:03:05.354Z,18.87
2019-03-20T19:05:54.827Z,19.50
2019-03-20T19:08:23.478Z,17.23
2019-03-20T19:10:52.194Z,17.00
2019-03-20T19:13:20.795Z,20.40
2019-03-20T19:15:49.431Z,17.13
2019-03-20T19:18:18.098Z,23.23
2019-03-20T19:20:46.659Z,20.67
2019-03-20T19:23:15.268Z,20.33
2019-03-20T19:25:43.837Z,16.80
2019-03-20T19:28:12.501Z,18.37
2019-03-20T19:30:41.208Z,18.40
2019-03-20T19:33:09.866Z,17.60
2019-03-20T19:35:38.443Z,17.40
2019-03-20T19:38:07.027Z,19.10
2019-03-20T19:40:35.528Z,16.17
2019-03-20T19:43:04.390Z,17.67
2019-03-20T19:45:32.958Z,16.70
2019-03-20T19:48:01.563Z,17.17
2019-03-20T19:50:30.186Z,18.30
2019-03-20T19:52:58.753Z,19.80
2019-03-20T19:55:27.278Z,18.43
2019-03-20T19:57:55.839Z,19.10
2019-03-20T20:00:25.291Z,19.63
2019-03-20T20:02:53.855Z,17.93
2019-03-20T20:05:22.510Z,21.40
2019-03-20T20:07:51.008Z,20.20
2019-03-20T20:10:20.230Z,19.50
2019-03-20T20:12:48.727Z,21.07
2019-03-20T20:15:28.731Z,19.40
2019-03-20T20:17:57.302Z,18.77
2019-03-20T20:20:27.626Z,20.80
2019-03-20T20:22:56.264Z,22.87
2019-03-20T20:25:24.850Z,25.37
2019-03-20T20:27:53.340Z,22.30
2019-03-20T20:30:21.934Z,20.23
2019-03-20T20:32:50.501Z,26.40
2019-03-20T20:35:19.172Z,19.73
2019-03-20T20:37:48.975Z,21.30
2019-03-20T20:40:22.325Z,21.83
2019-03-20T20:42:50.899Z,21.37
2019-03-20T20:45:19.562Z,23.30
2019-03-20T20:47:48.126Z,20.80
2019-03-20T20:50:17.457Z,20.10
2019-03-20T20:52:46.364Z,20.33
2019-03-20T20:55:19.895Z,22.00
2019-03-20T20:57:48.459Z,21.03
2019-03-20T21:00:21.063Z,24.83
2019-03-20T21:02:49.870Z,26.03
2019-03-20T21:05:18.522Z,22.00
2019-03-20T21:07:47.150Z,22.00
2019-03-20T21:10:25.242Z,21.87
2019-03-20T21:12:56.728Z,20.80
2019-03-20T21:15:35.289Z,21.40
2019-03-20T21:18:15.542Z,20.87
2019-03-20T21:20:44.707Z,20.47
2019-03-20T21:23:28.191Z,23.63
2019-03-20T21:26:00.022Z,22.73
2019-03-20T21:29:04.401Z,22.70
2019-03-20T21:31:36.544Z,22.63
2019-03-20T21:34:33.770Z,23.07
2019-03-20T21:37:23.062Z,26.17
2019-03-20T21:39:51.651Z,21.63
2019-03-20T21:42:41.112Z,24.53
2019-03-20T21:45:33.642Z,25.23
2019-03-20T21:48:02.149Z,23.17
2019-03-20T21:50:54.372Z,24.37
2019-03-20T21:53:34.970Z,23.33
2019-03-20T21:56:30.345Z,22.40
2019-03-20T21:59:01.987Z,25.27
2019-03-20T22:01:51.509Z,24.23
2019-03-20T22:04:20.085Z,24.50
2019-03-20T22:07:08.685Z,23.17
2019-03-20T22:09:52.360Z,27.30
2019-03-20T22:12:26.630Z,23.53
2019-03-20T22:15:04.081Z,28.20
2019-03-20T22:17:55.306Z,28.37
2019-03-20T22:20:35.248Z,27.57
2019-03-20T22:23:12.652Z,26.30
2019-03-20T22:26:18.606Z,25.53
2019-03-20T22:29:04.981Z,28.40
2019-03-20T22:31:36.574Z,28.07
2019-03-20T22:34:24.466Z,24.30
2019-03-20T22:36:53.694Z,26.33
2019-03-20T22:39:56.665Z,24.93
2019-03-20T22:42:30.949Z,25.57
2019-03-20T22:45:17.310Z,28.07
2019-03-20T22:48:11.250Z,26.57
2019-03-20T22:50:48.562Z,25.33
2019-03-20T22:53:45.733Z,28.27
2019-03-20T22:56:32.267Z,25.17
2019-03-20T22:59:00.830Z,30.67
2019-03-20T23:01:44.230Z,30.40
2019-03-20T23:04:21.730Z,27.47
2019-03-20T23:06:50.265Z,27.57
2019-03-20T23:09:18.904Z,26.93
2019-03-20T23:11:47.499Z,27.67
2019-03-20T23:14:16.063Z,27.90
2019-03-20T23:16:44.650Z,29.50
2019-03-20T23:19:13.142Z,27.70
2019-03-20T23:21:41.735Z,30.67
2019-03-20T23:24:10.301Z,30.07
2019-03-20T23:26:38.891Z,29.13
2019-03-20T23:29:07.456Z,27.97
2019-03-20T23:31:36.057Z,31.27
2019-03-20T23:34:04.698Z,28.27
2019-03-20T23:36:33.289Z,29.30
2019-03-20T23:39:01.781Z,27.70
2019-03-20T23:41:30.366Z,28.43
2019-03-20T23:43:58.858Z,28.00
2019-03-20T23:46:27.366Z,28.73
2019-03-20T23:49:04.646Z,31.30
2019-03-20T23:51:35.399Z,28.83
2019-03-20T23:54:04.366Z,27.83
2019-03-20T23:56:36.191Z,29.73
2019-03-20T23:59:05.499Z,27.77
